sensor_id;sensor_type;location;lat;lon;timestamp;P1;durP1;ratioP1;P2;durP2;ratioP2
11510;SDS011;5812;48.864;9.190;2022-07-17T00:01:33;3.08;;;3.08;;
11510;SDS011;5812;48.864;9.190;2022-07-17T00:03:59;3.15;;;3.15;;
11510;SDS011;5812;48.864;9.190;2022-07-17T00:06:24;2.90;;;2.90;;
11510;SDS011;5812;48.864;9.190;2022-07-17T00:08:50;3.13;;;3.13;;
11510;SDS011;5812;48.864;9.190;2022-07-17T00:11:16;3.47;;;3.47;;
11510;SDS011;5812;48.864;9.190;2022-07-17T00:13:41;2.90;;;2.90;;
11510;SDS011;5812;48.864;9.190;2022-07-17T00:16:07;3.10;;;3.10;;
11510;SDS011;5812;48.864;9.190;2022-07-17T00:18:33;3.25;;;3.25;;
11510;SDS011;5812;48.864;9.190;2022-07-17T00:20:58;3.25;;;3.25;;
11510;SDS011;5812;48.864;9.190;2022-07-17T00:23:24;3.30;;;3.30;;
11510;SDS011;5812;48.864;9.190;2022-07-17T00:25:50;3.30;;;3.30;;
11510;SDS011;5812;48.864;9.190;2022-07-17T00:28:15;2.88;;;2.88;;
11510;SDS011;5812;48.864;9.190;2022-07-17T00:30:41;3.03;;;3.03;;
11510;SDS011;5812;48.864;9.190;2022-07-17T00:33:06;2.67;;;2.67;;
11510;SDS011;5812;48.864;9.190;2022-07-17T00:35:32;3.00;;;3.00;;
11510;SDS011;5812;48.864;9.190;2022-07-17T00:37:58;3.07;;;3.07;;
11510;SDS011;5812;48.864;9.190;2022-07-17T00:40:24;3.25;;;3.25;;
11510;SDS011;5812;48.864;9.190;2022-07-17T00:42:50;3.33;;;3.33;;
11510;SDS011;5812;48.864;9.190;2022-07-17T00:45:16;3.30;;;3.30;;
11510;SDS011;5812;48.864;9.190;2022-07-17T00:47:48;3.10;;;3.10;;
11510;SDS011;5812;48.864;9.190;2022-07-17T00:50:22;3.07;;;3.07;;
11510;SDS011;5812;48.864;9.190;2022-07-17T00:52:50;3.00;;;3.00;;
11510;SDS011;5812;48.864;9.190;2022-07-17T00:55:16;3.47;;;3.47;;
11510;SDS011;5812;48.864;9.190;2022-07-17T00:57:42;2.67;;;2.67;;
11510;SDS011;5812;48.864;9.190;2022-07-17T01:00:14;3.23;;;3.23;;
11510;SDS011;5812;48.864;9.190;2022-07-17T01:02:44;3.40;;;3.40;;
11510;SDS011;5812;48.864;9.190;2022-07-17T01:05:14;3.10;;;3.10;;
11510;SDS011;5812;48.864;9.190;2022-07-17T01:07:40;3.63;;;3.63;;
11510;SDS011;5812;48.864;9.190;2022-07-17T01:10:07;3.53;;;3.53;;
11510;SDS011;5812;48.864;9.190;2022-07-17T01:12:33;3.63;;;3.63;;
11510;SDS011;5812;48.864;9.190;2022-07-17T01:14:59;3.43;;;3.43;;
11510;SDS011;5812;48.864;9.190;2022-07-17T01:17:25;3.33;;;3.33;;
11510;SDS011;5812;48.864;9.190;2022-07-17T01:19:52;3.20;;;3.20;;
11510;SDS011;5812;48.864;9.190;2022-07-17T01:22:18;3.50;;;3.50;;
11510;SDS011;5812;48.864;9.190;2022-07-17T01:24:43;3.00;;;3.00;;
11510;SDS011;5812;48.864;9.190;2022-07-17T01:27:09;3.13;;;3.13;;
11510;SDS011;5812;48.864;9.190;2022-07-17T01:29:36;3.00;;;3.00;;
11510;SDS011;5812;48.864;9.190;2022-07-17T01:32:02;3.33;;;3.33;;
11510;SDS011;5812;48.864;9.190;2022-07-17T01:34:28;3.27;;;3.27;;
11510;SDS011;5812;48.864;9.190;2022-07-17T01:36:54;3.10;;;3.10;;
11510;SDS011;5812;48.864;9.190;2022-07-17T01:39:20;3.07;;;3.07;;
11510;SDS011;5812;48.864;9.190;2022-07-17T01:42:04;3.47;;;3.47;;
11510;SDS011;5812;48.864;9.190;2022-07-17T01:44:30;2.97;;;2.97;;
11510;SDS011;5812;48.864;9.190;2022-07-17T01:46:55;3.10;;;3.10;;
11510;SDS011;5812;48.864;9.190;2022-07-17T01:49:21;3.13;;;3.13;;
11510;SDS011;5812;48.864;9.190;2022-07-17T01:51:46;3.00;;;3.00;;
11510;SDS011;5812;48.864;9.190;2022-07-17T01:54:13;2.90;;;2.90;;
11510;SDS011;5812;48.864;9.190;2022-07-17T01:56:39;3.10;;;3.10;;
11510;SDS011;5812;48.864;9.190;2022-07-17T01:59:04;3.30;;;3.30;;
11510;SDS011;5812;48.864;9.190;2022-07-17T02:01:30;3.03;;;3.03;;
11510;SDS011;5812;48.864;9.190;2022-07-17T02:03:55;2.80;;;2.80;;
11510;SDS011;5812;48.864;9.190;2022-07-17T02:06:21;3.23;;;3.23;;
11510;SDS011;5812;48.864;9.190;2022-07-17T02:08:47;3.43;;;3.43;;
11510;SDS011;5812;48.864;9.190;2022-07-17T02:11:15;3.13;;;3.13;;
11510;SDS011;5812;48.864;9.190;2022-07-17T02:13:41;2.70;;;2.70;;
11510;SDS011;5812;48.864;9.190;2022-07-17T02:16:07;3.07;;;3.07;;
11510;SDS011;5812;48.864;9.190;2022-07-17T02:18:33;3.63;;;3.63;;
11510;SDS011;5812;48.864;9.190;2022-07-17T02:20:59;3.50;;;3.50;;
11510;SDS011;5812;48.864;9.190;2022-07-17T02:23:25;3.20;;;3.20;;
11510;SDS011;5812;48.864;9.190;2022-07-17T02:25:50;3.43;;;3.43;;
11510;SDS011;5812;48.864;9.190;2022-07-17T02:28:16;3.43;;;3.43;;
11510;SDS011;5812;48.864;9.190;2022-07-17T02:30:42;3.97;;;3.97;;
11510;SDS011;5812;48.864;9.190;2022-07-17T02:33:08;4.00;;;4.00;;
11510;SDS011;5812;48.864;9.190;2022-07-17T02:35:33;3.33;;;3.33;;
11510;SDS011;5812;48.864;9.190;2022-07-17T02:37:59;3.57;;;3.57;;
11510;SDS011;5812;48.864;9.190;2022-07-17T02:40:25;4.07;;;4.07;;
11510;SDS011;5812;48.864;9.190;2022-07-17T02:42:51;4.60;;;4.60;;
11510;SDS011;5812;48.864;9.190;2022-07-17T02:45:16;4.30;;;4.30;;
11510;SDS011;5812;48.864;9.190;2022-07-17T02:47:46;4.80;;;4.80;;
11510;SDS011;5812;48.864;9.190;2022-07-17T02:50:12;4.43;;;4.43;;
11510;SDS011;5812;48.864;9.190;2022-07-17T02:52:38;4.77;;;4.77;;
11510;SDS011;5812;48.864;9.190;2022-07-17T02:55:04;4.13;;;4.13;;
11510;SDS011;5812;48.864;9.190;2022-07-17T02:57:30;4.10;;;4.10;;
11510;SDS011;5812;48.864;9.190;2022-07-17T02:59:57;4.90;;;4.90;;
11510;SDS011;5812;48.864;9.190;2022-07-17T03:02:22;4.67;;;4.67;;
11510;SDS011;5812;48.864;9.190;2022-07-17T03:04:48;4.87;;;4.87;;
11510;SDS011;5812;48.864;9.190;2022-07-17T03:07:14;4.73;;;4.73;;
11510;SDS011;5812;48.864;9.190;2022-07-17T03:09:39;4.90;;;4.90;;
11510;SDS011;5812;48.864;9.190;2022-07-17T03:12:05;4.50;;;4.50;;
11510;SDS011;5812;48.864;9.190;2022-07-17T03:14:31;4.70;;;4.70;;
11510;SDS011;5812;48.864;9.190;2022-07-17T03:16:56;4.37;;;4.37;;
11510;SDS011;5812;48.864;9.190;2022-07-17T03:19:22;4.33;;;4.33;;
11510;SDS011;5812;48.864;9.190;2022-07-17T03:21:48;4.60;;;4.60;;
11510;SDS011;5812;48.864;9.190;2022-07-17T03:24:14;4.87;;;4.87;;
11510;SDS011;5812;48.864;9.190;2022-07-17T03:26:39;4.63;;;4.63;;
11510;SDS011;5812;48.864;9.190;2022-07-17T03:29:05;4.50;;;4.50;;
11510;SDS011;5812;48.864;9.190;2022-07-17T03:31:31;4.37;;;4.37;;
11510;SDS011;5812;48.864;9.190;2022-07-17T03:33:56;5.20;;;5.20;;
11510;SDS011;5812;48.864;9.190;2022-07-17T03:36:22;4.93;;;4.93;;
11510;SDS011;5812;48.864;9.190;2022-07-17T03:38:47;5.03;;;5.03;;
11510;SDS011;5812;48.864;9.190;2022-07-17T03:41:13;4.77;;;4.77;;
11510;SDS011;5812;48.864;9.190;2022-07-17T03:43:39;5.03;;;5.03;;
11510;SDS011;5812;48.864;9.190;2022-07-17T03:46:04;5.53;;;5.53;;
11510;SDS011;5812;48.864;9.190;2022-07-17T03:48:30;5.00;;;5.00;;
11510;SDS011;5812;48.864;9.190;2022-07-17T03:50:55;5.23;;;5.23;;
11510;SDS011;5812;48.864;9.190;2022-07-17T03:53:21;4.87;;;4.87;;
11510;SDS011;5812;48.864;9.190;2022-07-17T03:55:47;4.77;;;4.77;;
11510;SDS011;5812;48.864;9.190;2022-07-17T03:58:12;4.80;;;4.80;;
11510;SDS011;5812;48.864;9.190;2022-07-17T04:00:38;5.13;;;5.13;;
11510;SDS011;5812;48.864;9.190;2022-07-17T04:03:04;5.57;;;5.57;;
11510;SDS011;5812;48.864;9.190;2022-07-17T04:05:29;5.63;;;5.63;;
11510;SDS011;5812;48.864;9.190;2022-07-17T04:07:55;5.00;;;5.00;;
11510;SDS011;5812;48.864;9.190;2022-07-17T04:10:20;4.90;;;4.90;;
11510;SDS011;5812;48.864;9.190;2022-07-17T04:12:46;5.40;;;5.40;;
11510;SDS011;5812;48.864;9.190;2022-07-17T04:15:13;5.03;;;5.03;;
11510;SDS011;5812;48.864;9.190;2022-07-17T04:17:58;5.57;;;5.57;;
11510;SDS011;5812;48.864;9.190;2022-07-17T04:20:24;5.30;;;5.30;;
11510;SDS011;5812;48.864;9.190;2022-07-17T04:22:49;5.40;;;5.40;;
11510;SDS011;5812;48.864;9.190;2022-07-17T04:25:15;6.30;;;6.30;;
11510;SDS011;5812;48.864;9.190;2022-07-17T04:27:40;5.47;;;5.47;;
11510;SDS011;5812;48.864;9.190;2022-07-17T04:30:06;5.40;;;5.40;;
11510;SDS011;5812;48.864;9.190;2022-07-17T04:32:32;5.13;;;5.13;;
11510;SDS011;5812;48.864;9.190;2022-07-17T04:34:58;5.50;;;5.50;;
11510;SDS011;5812;48.864;9.190;2022-07-17T04:37:23;5.40;;;5.40;;
11510;SDS011;5812;48.864;9.190;2022-07-17T04:39:49;5.27;;;5.27;;
11510;SDS011;5812;48.864;9.190;2022-07-17T04:42:14;5.30;;;5.30;;
11510;SDS011;5812;48.864;9.190;2022-07-17T04:44:40;4.57;;;4.57;;
11510;SDS011;5812;48.864;9.190;2022-07-17T04:47:05;4.77;;;4.77;;
11510;SDS011;5812;48.864;9.190;2022-07-17T04:49:31;4.80;;;4.80;;
11510;SDS011;5812;48.864;9.190;2022-07-17T04:51:57;4.50;;;4.50;;
11510;SDS011;5812;48.864;9.190;2022-07-17T04:54:22;4.80;;;4.80;;
11510;SDS011;5812;48.864;9.190;2022-07-17T04:56:48;4.33;;;4.33;;
11510;SDS011;5812;48.864;9.190;2022-07-17T04:59:13;4.43;;;4.43;;
11510;SDS011;5812;48.864;9.190;2022-07-17T05:01:39;4.97;;;4.97;;
11510;SDS011;5812;48.864;9.190;2022-07-17T05:04:05;4.60;;;4.60;;
11510;SDS011;5812;48.864;9.190;2022-07-17T05:06:30;4.40;;;4.40;;
11510;SDS011;5812;48.864;9.190;2022-07-17T05:08:56;4.13;;;4.13;;
11510;SDS011;5812;48.864;9.190;2022-07-17T05:11:22;4.45;;;4.45;;
11510;SDS011;5812;48.864;9.190;2022-07-17T05:13:47;4.13;;;4.13;;
11510;SDS011;5812;48.864;9.190;2022-07-17T05:16:13;4.03;;;4.03;;
11510;SDS011;5812;48.864;9.190;2022-07-17T05:18:39;3.97;;;3.97;;
11510;SDS011;5812;48.864;9.190;2022-07-17T05:21:04;3.93;;;3.93;;
11510;SDS011;5812;48.864;9.190;2022-07-17T05:23:30;4.47;;;4.47;;
11510;SDS011;5812;48.864;9.190;2022-07-17T05:25:56;4.70;;;4.70;;
11510;SDS011;5812;48.864;9.190;2022-07-17T05:28:22;4.53;;;4.53;;
11510;SDS011;5812;48.864;9.190;2022-07-17T05:30:47;4.43;;;4.43;;
11510;SDS011;5812;48.864;9.190;2022-07-17T05:33:13;3.90;;;3.90;;
11510;SDS011;5812;48.864;9.190;2022-07-17T05:35:39;4.05;;;4.05;;
11510;SDS011;5812;48.864;9.190;2022-07-17T05:38:04;3.55;;;3.55;;
11510;SDS011;5812;48.864;9.190;2022-07-17T05:40:31;3.88;;;3.88;;
11510;SDS011;5812;48.864;9.190;2022-07-17T05:42:57;3.97;;;3.97;;
11510;SDS011;5812;48.864;9.190;2022-07-17T05:45:23;4.22;;;4.22;;
11510;SDS011;5812;48.864;9.190;2022-07-17T05:47:48;4.05;;;4.05;;
11510;SDS011;5812;48.864;9.190;2022-07-17T05:50:14;3.88;;;3.88;;
11510;SDS011;5812;48.864;9.190;2022-07-17T05:52:40;3.42;;;3.42;;
11510;SDS011;5812;48.864;9.190;2022-07-17T05:55:05;3.40;;;3.40;;
11510;SDS011;5812;48.864;9.190;2022-07-17T05:57:32;3.42;;;3.42;;
11510;SDS011;5812;48.864;9.190;2022-07-17T05:59:58;3.38;;;3.38;;
11510;SDS011;5812;48.864;9.190;2022-07-17T06:02:23;3.25;;;3.25;;
11510;SDS011;5812;48.864;9.190;2022-07-17T06:04:49;2.70;;;2.70;;
11510;SDS011;5812;48.864;9.190;2022-07-17T06:07:15;3.38;;;3.38;;
11510;SDS011;5812;48.864;9.190;2022-07-17T06:09:40;3.30;;;3.30;;
11510;SDS011;5812;48.864;9.190;2022-07-17T06:12:06;3.15;;;3.15;;
11510;SDS011;5812;48.864;9.190;2022-07-17T06:14:32;3.55;;;3.55;;
11510;SDS011;5812;48.864;9.190;2022-07-17T06:16:58;2.70;;;2.70;;
11510;SDS011;5812;48.864;9.190;2022-07-17T06:19:23;3.35;;;3.35;;
11510;SDS011;5812;48.864;9.190;2022-07-17T06:21:49;2.85;;;2.85;;
11510;SDS011;5812;48.864;9.190;2022-07-17T06:24:14;2.47;;;2.47;;
11510;SDS011;5812;48.864;9.190;2022-07-17T06:26:40;2.40;;;2.40;;
11510;SDS011;5812;48.864;9.190;2022-07-17T06:29:06;2.38;;;2.38;;
11510;SDS011;5812;48.864;9.190;2022-07-17T06:31:32;1.92;;;1.92;;
11510;SDS011;5812;48.864;9.190;2022-07-17T06:33:57;1.63;;;1.63;;
11510;SDS011;5812;48.864;9.190;2022-07-17T06:36:23;1.88;;;1.88;;
11510;SDS011;5812;48.864;9.190;2022-07-17T06:38:48;2.13;;;2.13;;
11510;SDS011;5812;48.864;9.190;2022-07-17T06:41:14;2.70;;;2.70;;
11510;SDS011;5812;48.864;9.190;2022-07-17T06:43:40;1.75;;;1.75;;
11510;SDS011;5812;48.864;9.190;2022-07-17T06:46:05;1.77;;;1.77;;
11510;SDS011;5812;48.864;9.190;2022-07-17T06:48:31;1.92;;;1.92;;
11510;SDS011;5812;48.864;9.190;2022-07-17T06:50:56;1.85;;;1.85;;
11510;SDS011;5812;48.864;9.190;2022-07-17T06:53:22;2.35;;;2.35;;
11510;SDS011;5812;48.864;9.190;2022-07-17T06:55:48;1.67;;;1.67;;
11510;SDS011;5812;48.864;9.190;2022-07-17T06:58:13;1.88;;;1.88;;
11510;SDS011;5812;48.864;9.190;2022-07-17T07:00:39;2.20;;;2.20;;
11510;SDS011;5812;48.864;9.190;2022-07-17T07:03:05;1.98;;;1.98;;
11510;SDS011;5812;48.864;9.190;2022-07-17T07:05:30;1.95;;;1.95;;
11510;SDS011;5812;48.864;9.190;2022-07-17T07:07:56;1.80;;;1.80;;
11510;SDS011;5812;48.864;9.190;2022-07-17T07:10:22;1.80;;;1.80;;
11510;SDS011;5812;48.864;9.190;2022-07-17T07:12:47;1.73;;;1.73;;
11510;SDS011;5812;48.864;9.190;2022-07-17T07:15:13;1.67;;;1.67;;
11510;SDS011;5812;48.864;9.190;2022-07-17T07:17:39;1.77;;;1.77;;
11510;SDS011;5812;48.864;9.190;2022-07-17T07:20:06;1.80;;;1.80;;
11510;SDS011;5812;48.864;9.190;2022-07-17T07:22:33;1.70;;;1.70;;
11510;SDS011;5812;48.864;9.190;2022-07-17T07:24:58;1.80;;;1.80;;
11510;SDS011;5812;48.864;9.190;2022-07-17T07:27:24;1.40;;;1.40;;
11510;SDS011;5812;48.864;9.190;2022-07-17T07:29:50;1.58;;;1.58;;
11510;SDS011;5812;48.864;9.190;2022-07-17T07:32:15;1.60;;;1.60;;
11510;SDS011;5812;48.864;9.190;2022-07-17T07:34:41;1.45;;;1.45;;
11510;SDS011;5812;48.864;9.190;2022-07-17T07:37:07;1.65;;;1.65;;
11510;SDS011;5812;48.864;9.190;2022-07-17T07:39:32;1.40;;;1.40;;
11510;SDS011;5812;48.864;9.190;2022-07-17T07:41:58;1.50;;;1.50;;
11510;SDS011;5812;48.864;9.190;2022-07-17T07:44:24;1.50;;;1.50;;
11510;SDS011;5812;48.864;9.190;2022-07-17T07:46:50;1.65;;;1.65;;
11510;SDS011;5812;48.864;9.190;2022-07-17T07:49:16;1.40;;;1.40;;
11510;SDS011;5812;48.864;9.190;2022-07-17T07:51:42;1.52;;;1.52;;
11510;SDS011;5812;48.864;9.190;2022-07-17T07:54:08;1.80;;;1.80;;
11510;SDS011;5812;48.864;9.190;2022-07-17T07:56:34;1.40;;;1.40;;
11510;SDS011;5812;48.864;9.190;2022-07-17T07:59:00;1.33;;;1.33;;
11510;SDS011;5812;48.864;9.190;2022-07-17T08:01:25;1.40;;;1.40;;
11510;SDS011;5812;48.864;9.190;2022-07-17T08:03:51;1.60;;;1.60;;
11510;SDS011;5812;48.864;9.190;2022-07-17T08:06:16;1.48;;;1.48;;
11510;SDS011;5812;48.864;9.190;2022-07-17T08:08:42;1.80;;;1.80;;
11510;SDS011;5812;48.864;9.190;2022-07-17T08:11:08;1.92;;;1.92;;
11510;SDS011;5812;48.864;9.190;2022-07-17T08:13:34;1.40;;;1.40;;
11510;SDS011;5812;48.864;9.190;2022-07-17T08:15:59;1.77;;;1.77;;
11510;SDS011;5812;48.864;9.190;2022-07-17T08:18:25;1.88;;;1.88;;
11510;SDS011;5812;48.864;9.190;2022-07-17T08:20:52;1.60;;;1.60;;
11510;SDS011;5812;48.864;9.190;2022-07-17T08:23:18;1.35;;;1.35;;
11510;SDS011;5812;48.864;9.190;2022-07-17T08:25:44;1.75;;;1.75;;
11510;SDS011;5812;48.864;9.190;2022-07-17T08:28:11;1.30;;;1.30;;
11510;SDS011;5812;48.864;9.190;2022-07-17T08:30:37;1.50;;;1.50;;
11510;SDS011;5812;48.864;9.190;2022-07-17T08:33:03;2.00;;;2.00;;
11510;SDS011;5812;48.864;9.190;2022-07-17T08:35:31;1.80;;;1.80;;
11510;SDS011;5812;48.864;9.190;2022-07-17T08:37:57;1.58;;;1.58;;
11510;SDS011;5812;48.864;9.190;2022-07-17T08:40:26;1.73;;;1.73;;
11510;SDS011;5812;48.864;9.190;2022-07-17T08:42:54;1.50;;;1.50;;
11510;SDS011;5812;48.864;9.190;2022-07-17T08:45:21;1.58;;;1.58;;
11510;SDS011;5812;48.864;9.190;2022-07-17T08:47:47;1.60;;;1.60;;
11510;SDS011;5812;48.864;9.190;2022-07-17T08:50:16;1.48;;;1.48;;
11510;SDS011;5812;48.864;9.190;2022-07-17T08:52:52;1.67;;;1.67;;
11510;SDS011;5812;48.864;9.190;2022-07-17T08:55:18;1.52;;;1.52;;
11510;SDS011;5812;48.864;9.190;2022-07-17T08:57:44;1.63;;;1.63;;
11510;SDS011;5812;48.864;9.190;2022-07-17T09:00:11;1.50;;;1.50;;
11510;SDS011;5812;48.864;9.190;2022-07-17T09:02:40;1.50;;;1.50;;
11510;SDS011;5812;48.864;9.190;2022-07-17T09:05:22;1.67;;;1.67;;
11510;SDS011;5812;48.864;9.190;2022-07-17T09:07:49;1.42;;;1.42;;
11510;SDS011;5812;48.864;9.190;2022-07-17T09:10:15;1.73;;;1.73;;
11510;SDS011;5812;48.864;9.190;2022-07-17T09:12:40;1.55;;;1.55;;
11510;SDS011;5812;48.864;9.190;2022-07-17T09:15:19;0.98;;;0.98;;
11510;SDS011;5812;48.864;9.190;2022-07-17T09:17:51;1.30;;;1.30;;
11510;SDS011;5812;48.864;9.190;2022-07-17T09:20:19;1.23;;;1.23;;
11510;SDS011;5812;48.864;9.190;2022-07-17T09:22:55;1.10;;;1.10;;
11510;SDS011;5812;48.864;9.190;2022-07-17T09:25:31;1.27;;;1.27;;
11510;SDS011;5812;48.864;9.190;2022-07-17T09:28:01;1.25;;;1.25;;
11510;SDS011;5812;48.864;9.190;2022-07-17T09:30:28;1.30;;;1.30;;
11510;SDS011;5812;48.864;9.190;2022-07-17T09:32:54;1.27;;;1.27;;
11510;SDS011;5812;48.864;9.190;2022-07-17T09:35:20;1.20;;;1.20;;
11510;SDS011;5812;48.864;9.190;2022-07-17T09:37:47;1.10;;;1.10;;
11510;SDS011;5812;48.864;9.190;2022-07-17T09:40:14;1.38;;;1.38;;
11510;SDS011;5812;48.864;9.190;2022-07-17T09:42:58;1.15;;;1.15;;
11510;SDS011;5812;48.864;9.190;2022-07-17T09:45:24;1.10;;;1.10;;
11510;SDS011;5812;48.864;9.190;2022-07-17T09:47:50;1.13;;;1.13;;
11510;SDS011;5812;48.864;9.190;2022-07-17T09:50:17;1.20;;;1.20;;
11510;SDS011;5812;48.864;9.190;2022-07-17T09:52:44;1.10;;;1.10;;
11510;SDS011;5812;48.864;9.190;2022-07-17T09:55:14;1.20;;;1.20;;
11510;SDS011;5812;48.864;9.190;2022-07-17T09:57:41;1.30;;;1.30;;
11510;SDS011;5812;48.864;9.190;2022-07-17T10:00:08;1.00;;;1.00;;
11510;SDS011;5812;48.864;9.190;2022-07-17T10:02:41;1.25;;;1.25;;
11510;SDS011;5812;48.864;9.190;2022-07-17T10:05:12;1.40;;;1.40;;
11510;SDS011;5812;48.864;9.190;2022-07-17T10:07:40;1.40;;;1.40;;
11510;SDS011;5812;48.864;9.190;2022-07-17T10:10:13;1.20;;;1.20;;
11510;SDS011;5812;48.864;9.190;2022-07-17T10:12:42;1.13;;;1.13;;
11510;SDS011;5812;48.864;9.190;2022-07-17T10:15:09;1.10;;;1.10;;
11510;SDS011;5812;48.864;9.190;2022-07-17T10:17:36;1.02;;;1.02;;
11510;SDS011;5812;48.864;9.190;2022-07-17T10:20:02;1.02;;;1.02;;
11510;SDS011;5812;48.864;9.190;2022-07-17T10:22:40;1.23;;;1.23;;
11510;SDS011;5812;48.864;9.190;2022-07-17T10:25:07;0.98;;;0.98;;
11510;SDS011;5812;48.864;9.190;2022-07-17T10:27:37;1.08;;;1.08;;
11510;SDS011;5812;48.864;9.190;2022-07-17T10:30:19;1.10;;;1.10;;
11510;SDS011;5812;48.864;9.190;2022-07-17T10:32:53;0.80;;;0.80;;
11510;SDS011;5812;48.864;9.190;2022-07-17T10:35:24;1.13;;;1.13;;
11510;SDS011;5812;48.864;9.190;2022-07-17T10:37:51;1.10;;;1.10;;
11510;SDS011;5812;48.864;9.190;2022-07-17T10:40:21;0.95;;;0.95;;
11510;SDS011;5812;48.864;9.190;2022-07-17T10:42:56;1.00;;;1.00;;
11510;SDS011;5812;48.864;9.190;2022-07-17T10:45:23;1.00;;;1.00;;
11510;SDS011;5812;48.864;9.190;2022-07-17T10:47:54;1.00;;;1.00;;
11510;SDS011;5812;48.864;9.190;2022-07-17T10:50:35;1.50;;;1.50;;
11510;SDS011;5812;48.864;9.190;2022-07-17T10:55:46;1.15;;;1.15;;
11510;SDS011;5812;48.864;9.190;2022-07-17T11:00:42;1.42;;;1.42;;
11510;SDS011;5812;48.864;9.190;2022-07-17T11:03:11;0.98;;;0.98;;
11510;SDS011;5812;48.864;9.190;2022-07-17T11:05:38;1.30;;;1.30;;
11510;SDS011;5812;48.864;9.190;2022-07-17T11:08:04;0.90;;;0.90;;
11510;SDS011;5812;48.864;9.190;2022-07-17T11:10:34;1.10;;;1.10;;
11510;SDS011;5812;48.864;9.190;2022-07-17T11:13:10;0.90;;;0.90;;
11510;SDS011;5812;48.864;9.190;2022-07-17T11:15:43;0.98;;;0.98;;
11510;SDS011;5812;48.864;9.190;2022-07-17T11:18:12;0.90;;;0.90;;
11510;SDS011;5812;48.864;9.190;2022-07-17T11:21:00;0.90;;;0.90;;
11510;SDS011;5812;48.864;9.190;2022-07-17T11:23:28;0.98;;;0.98;;
11510;SDS011;5812;48.864;9.190;2022-07-17T11:31:16;0.80;;;0.80;;
11510;SDS011;5812;48.864;9.190;2022-07-17T11:33:48;1.00;;;1.00;;
11510;SDS011;5812;48.864;9.190;2022-07-17T11:38:47;0.82;;;0.82;;
11510;SDS011;5812;48.864;9.190;2022-07-17T11:41:14;0.70;;;0.70;;
11510;SDS011;5812;48.864;9.190;2022-07-17T11:43:42;1.02;;;1.02;;
11510;SDS011;5812;48.864;9.190;2022-07-17T11:46:08;1.20;;;1.20;;
11510;SDS011;5812;48.864;9.190;2022-07-17T11:48:34;1.10;;;1.10;;
11510;SDS011;5812;48.864;9.190;2022-07-17T11:51:00;0.68;;;0.68;;
11510;SDS011;5812;48.864;9.190;2022-07-17T11:53:33;1.10;;;1.10;;
11510;SDS011;5812;48.864;9.190;2022-07-17T11:56:00;0.90;;;0.90;;
11510;SDS011;5812;48.864;9.190;2022-07-17T11:58:26;0.70;;;0.70;;
11510;SDS011;5812;48.864;9.190;2022-07-17T12:01:02;0.90;;;0.90;;
11510;SDS011;5812;48.864;9.190;2022-07-17T12:03:28;0.85;;;0.85;;
11510;SDS011;5812;48.864;9.190;2022-07-17T12:05:54;0.75;;;0.75;;
11510;SDS011;5812;48.864;9.190;2022-07-17T12:08:20;1.10;;;1.10;;
11510;SDS011;5812;48.864;9.190;2022-07-17T12:10:46;0.80;;;0.80;;
11510;SDS011;5812;48.864;9.190;2022-07-17T12:13:12;0.88;;;0.88;;
11510;SDS011;5812;48.864;9.190;2022-07-17T12:18:06;0.90;;;0.90;;
11510;SDS011;5812;48.864;9.190;2022-07-17T12:20:44;0.90;;;0.90;;
11510;SDS011;5812;48.864;9.190;2022-07-17T12:23:30;0.90;;;0.90;;
11510;SDS011;5812;48.864;9.190;2022-07-17T12:28:33;0.85;;;0.85;;
11510;SDS011;5812;48.864;9.190;2022-07-17T12:31:00;0.88;;;0.88;;
11510;SDS011;5812;48.864;9.190;2022-07-17T12:33:25;1.10;;;1.10;;
11510;SDS011;5812;48.864;9.190;2022-07-17T12:35:52;0.80;;;0.80;;
11510;SDS011;5812;48.864;9.190;2022-07-17T12:38:17;0.88;;;0.88;;
11510;SDS011;5812;48.864;9.190;2022-07-17T12:40:43;0.95;;;0.95;;
11510;SDS011;5812;48.864;9.190;2022-07-17T12:43:09;1.20;;;1.20;;
11510;SDS011;5812;48.864;9.190;2022-07-17T12:45:34;0.80;;;0.80;;
11510;SDS011;5812;48.864;9.190;2022-07-17T12:48:00;0.88;;;0.88;;
11510;SDS011;5812;48.864;9.190;2022-07-17T12:50:26;1.25;;;1.25;;
11510;SDS011;5812;48.864;9.190;2022-07-17T12:52:52;0.77;;;0.77;;
11510;SDS011;5812;48.864;9.190;2022-07-17T12:55:18;0.70;;;0.70;;
11510;SDS011;5812;48.864;9.190;2022-07-17T12:57:44;0.90;;;0.90;;
11510;SDS011;5812;48.864;9.190;2022-07-17T13:00:10;0.90;;;0.90;;
11510;SDS011;5812;48.864;9.190;2022-07-17T13:02:36;0.90;;;0.90;;
11510;SDS011;5812;48.864;9.190;2022-07-17T13:05:02;0.90;;;0.90;;
11510;SDS011;5812;48.864;9.190;2022-07-17T13:07:27;1.05;;;1.05;;
11510;SDS011;5812;48.864;9.190;2022-07-17T13:09:53;0.80;;;0.80;;
11510;SDS011;5812;48.864;9.190;2022-07-17T13:12:18;0.90;;;0.90;;
11510;SDS011;5812;48.864;9.190;2022-07-17T13:14:44;1.13;;;1.13;;
11510;SDS011;5812;48.864;9.190;2022-07-17T13:17:10;1.00;;;1.00;;
11510;SDS011;5812;48.864;9.190;2022-07-17T13:19:35;0.90;;;0.90;;
11510;SDS011;5812;48.864;9.190;2022-07-17T13:22:03;0.90;;;0.90;;
11510;SDS011;5812;48.864;9.190;2022-07-17T13:24:32;0.57;;;0.57;;
11510;SDS011;5812;48.864;9.190;2022-07-17T13:26:58;0.90;;;0.90;;
11510;SDS011;5812;48.864;9.190;2022-07-17T13:29:24;0.82;;;0.82;;
11510;SDS011;5812;48.864;9.190;2022-07-17T13:31:55;0.93;;;0.93;;
11510;SDS011;5812;48.864;9.190;2022-07-17T13:34:21;0.77;;;0.77;;
11510;SDS011;5812;48.864;9.190;2022-07-17T13:36:47;1.00;;;1.00;;
11510;SDS011;5812;48.864;9.190;2022-07-17T13:39:13;0.90;;;0.90;;
11510;SDS011;5812;48.864;9.190;2022-07-17T13:41:39;0.80;;;0.80;;
11510;SDS011;5812;48.864;9.190;2022-07-17T13:44:08;1.00;;;1.00;;
11510;SDS011;5812;48.864;9.190;2022-07-17T13:46:34;0.95;;;0.95;;
11510;SDS011;5812;48.864;9.190;2022-07-17T13:49:00;0.93;;;0.93;;
11510;SDS011;5812;48.864;9.190;2022-07-17T13:51:26;0.75;;;0.75;;
11510;SDS011;5812;48.864;9.190;2022-07-17T13:53:52;0.70;;;0.70;;
11510;SDS011;5812;48.864;9.190;2022-07-17T13:56:19;0.80;;;0.80;;
11510;SDS011;5812;48.864;9.190;2022-07-17T13:58:46;1.00;;;1.00;;
11510;SDS011;5812;48.864;9.190;2022-07-17T14:01:12;0.90;;;0.90;;
11510;SDS011;5812;48.864;9.190;2022-07-17T14:03:39;0.90;;;0.90;;
11510;SDS011;5812;48.864;9.190;2022-07-17T14:06:04;0.77;;;0.77;;
11510;SDS011;5812;48.864;9.190;2022-07-17T14:08:30;1.10;;;1.10;;
11510;SDS011;5812;48.864;9.190;2022-07-17T14:10:56;1.10;;;1.10;;
11510;SDS011;5812;48.864;9.190;2022-07-17T14:13:22;0.80;;;0.80;;
11510;SDS011;5812;48.864;9.190;2022-07-17T14:15:48;1.00;;;1.00;;
11510;SDS011;5812;48.864;9.190;2022-07-17T14:18:13;0.77;;;0.77;;
11510;SDS011;5812;48.864;9.190;2022-07-17T14:20:39;1.30;;;1.30;;
11510;SDS011;5812;48.864;9.190;2022-07-17T14:23:05;1.02;;;1.02;;
11510;SDS011;5812;48.864;9.190;2022-07-17T14:25:31;1.00;;;1.00;;
11510;SDS011;5812;48.864;9.190;2022-07-17T14:27:56;0.80;;;0.80;;
11510;SDS011;5812;48.864;9.190;2022-07-17T14:30:22;0.68;;;0.68;;
11510;SDS011;5812;48.864;9.190;2022-07-17T14:32:48;0.90;;;0.90;;
11510;SDS011;5812;48.864;9.190;2022-07-17T14:35:13;0.70;;;0.70;;
11510;SDS011;5812;48.864;9.190;2022-07-17T14:37:39;1.10;;;1.10;;
11510;SDS011;5812;48.864;9.190;2022-07-17T14:40:05;0.82;;;0.82;;
11510;SDS011;5812;48.864;9.190;2022-07-17T14:42:31;0.80;;;0.80;;
11510;SDS011;5812;48.864;9.190;2022-07-17T14:44:58;1.00;;;1.00;;
11510;SDS011;5812;48.864;9.190;2022-07-17T14:47:25;1.13;;;1.13;;
11510;SDS011;5812;48.864;9.190;2022-07-17T14:49:51;1.25;;;1.25;;
11510;SDS011;5812;48.864;9.190;2022-07-17T14:52:17;1.23;;;1.23;;
11510;SDS011;5812;48.864;9.190;2022-07-17T14:54:43;1.20;;;1.20;;
11510;SDS011;5812;48.864;9.190;2022-07-17T14:57:09;1.15;;;1.15;;
11510;SDS011;5812;48.864;9.190;2022-07-17T14:59:34;0.95;;;0.95;;
11510;SDS011;5812;48.864;9.190;2022-07-17T15:02:00;1.13;;;1.13;;
11510;SDS011;5812;48.864;9.190;2022-07-17T15:04:26;1.10;;;1.10;;
11510;SDS011;5812;48.864;9.190;2022-07-17T15:06:51;1.20;;;1.20;;
11510;SDS011;5812;48.864;9.190;2022-07-17T15:09:17;1.00;;;1.00;;
11510;SDS011;5812;48.864;9.190;2022-07-17T15:11:43;1.00;;;1.00;;
11510;SDS011;5812;48.864;9.190;2022-07-17T15:14:09;1.30;;;1.30;;
11510;SDS011;5812;48.864;9.190;2022-07-17T15:16:34;1.15;;;1.15;;